sensor_id;sensor_type;location;lat;lon;timestamp;P1;durP1;ratioP1;P2;durP2;ratioP2
43690;SDS011;29293;52.190;21.226;2024-03-22T00:08:10;51.80;;;31.00;;
43690;SDS011;29293;52.190;21.226;2024-03-22T00:23:19;54.80;;;32.60;;
43690;SDS011;29293;52.190;21.226;2024-03-22T00:38:26;59.70;;;35.10;;
43690;SDS011;29293;52.190;21.226;2024-03-22T00:53:33;57.30;;;34.00;;
43690;SDS011;29293;52.190;21.226;2024-03-22T01:08:39;57.10;;;33.80;;
43690;SDS011;29293;52.190;21.226;2024-03-22T01:23:46;55.90;;;33.70;;
43690;SDS011;29293;52.190;21.226;2024-03-22T01:38:53;64.30;;;38.10;;
43690;SDS011;29293;52.190;21.226;2024-03-22T01:53:59;60.00;;;35.30;;
43690;SDS011;29293;52.190;21.226;2024-03-22T02:09:08;62.20;;;37.60;;
43690;SDS011;29293;52.190;21.226;2024-03-22T02:24:15;67.30;;;39.70;;
43690;SDS011;29293;52.190;21.226;2024-03-22T02:39:21;74.30;;;41.10;;
43690;SDS011;29293;52.190;21.226;2024-03-22T02:54:28;78.30;;;43.40;;
43690;SDS011;29293;52.190;21.226;2024-03-22T03:09:35;82.20;;;44.90;;
43690;SDS011;29293;52.190;21.226;2024-03-22T03:24:41;110.30;;;54.80;;
43690;SDS011;29293;52.190;21.226;2024-03-22T03:39:49;128.00;;;58.50;;
43690;SDS011;29293;52.190;21.226;2024-03-22T03:54:55;117.90;;;55.50;;
43690;SDS011;29293;52.190;21.226;2024-03-22T04:10:01;108.20;;;48.50;;
43690;SDS011;29293;52.190;21.226;2024-03-22T04:25:08;83.50;;;39.30;;
43690;SDS011;29293;52.190;21.226;2024-03-22T04:40:15;79.00;;;37.30;;
43690;SDS011;29293;52.190;21.226;2024-03-22T04:55:22;89.00;;;43.80;;
43690;SDS011;29293;52.190;21.226;2024-03-22T05:10:28;86.80;;;40.90;;
43690;SDS011;29293;52.190;21.226;2024-03-22T05:25:35;94.20;;;43.70;;
43690;SDS011;29293;52.190;21.226;2024-03-22T05:40:42;95.70;;;43.10;;
43690;SDS011;29293;52.190;21.226;2024-03-22T05:55:51;98.90;;;46.00;;
43690;SDS011;29293;52.190;21.226;2024-03-22T06:10:57;97.50;;;45.00;;
43690;SDS011;29293;52.190;21.226;2024-03-22T06:26:04;98.60;;;43.50;;
43690;SDS011;29293;52.190;21.226;2024-03-22T06:41:11;92.30;;;42.20;;
43690;SDS011;29293;52.190;21.226;2024-03-22T06:56:18;82.80;;;40.20;;
43690;SDS011;29293;52.190;21.226;2024-03-22T07:11:25;78.80;;;38.70;;
43690;SDS011;29293;52.190;21.226;2024-03-22T07:26:31;68.10;;;36.00;;
43690;SDS011;29293;52.190;21.226;2024-03-22T07:41:38;60.80;;;32.50;;
43690;SDS011;29293;52.190;21.226;2024-03-22T07:56:44;58.70;;;31.90;;
43690;SDS011;29293;52.190;21.226;2024-03-22T08:57:06;56.20;;;30.10;;
43690;SDS011;29293;52.190;21.226;2024-03-22T09:12:13;53.10;;;29.60;;
43690;SDS011;29293;52.190;21.226;2024-03-22T09:27:19;55.60;;;31.70;;
43690;SDS011;29293;52.190;21.226;2024-03-22T09:42:29;51.10;;;29.20;;
43690;SDS011;29293;52.190;21.226;2024-03-22T09:57:43;39.80;;;23.70;;
43690;SDS011;29293;52.190;21.226;2024-03-22T10:12:53;33.10;;;20.20;;
43690;SDS011;29293;52.190;21.226;2024-03-22T10:28:00;32.10;;;19.40;;
43690;SDS011;29293;52.190;21.226;2024-03-22T10:43:09;31.70;;;19.30;;
43690;SDS011;29293;52.190;21.226;2024-03-22T10:58:21;33.50;;;21.60;;
43690;SDS011;29293;52.190;21.226;2024-03-22T11:13:35;34.30;;;19.90;;
43690;SDS011;29293;52.190;21.226;2024-03-22T11:28:44;35.90;;;21.20;;
43690;SDS011;29293;52.190;21.226;2024-03-22T11:43:51;35.10;;;21.10;;
43690;SDS011;29293;52.190;21.226;2024-03-22T11:59:01;30.90;;;20.80;;
43690;SDS011;29293;52.190;21.226;2024-03-22T12:14:08;33.60;;;21.30;;
43690;SDS011;29293;52.190;21.226;2024-03-22T12:29:16;29.70;;;18.80;;
43690;SDS011;29293;52.190;21.226;2024-03-22T12:44:23;27.70;;;18.50;;
43690;SDS011;29293;52.190;21.226;2024-03-22T12:59:29;23.30;;;15.40;;
43690;SDS011;29293;52.190;21.226;2024-03-22T13:14:40;23.30;;;15.10;;
43690;SDS011;29293;52.190;21.226;2024-03-22T13:29:47;20.60;;;13.20;;
43690;SDS011;29293;52.190;21.226;2024-03-22T13:44:55;19.80;;;12.90;;
43690;SDS011;29293;52.190;21.226;2024-03-22T14:00:05;20.50;;;13.20;;
43690;SDS011;29293;52.190;21.226;2024-03-22T14:15:18;21.30;;;13.90;;
43690;SDS011;29293;52.190;21.226;2024-03-22T14:30:24;21.40;;;13.90;;
43690;SDS011;29293;52.190;21.226;2024-03-22T14:45:31;18.70;;;13.40;;
43690;SDS011;29293;52.190;21.226;2024-03-22T15:00:37;20.70;;;13.60;;
43690;SDS011;29293;52.190;21.226;2024-03-22T15:15:52;20.00;;;13.10;;
43690;SDS011;29293;52.190;21.226;2024-03-22T15:30:59;23.50;;;16.90;;
43690;SDS011;29293;52.190;21.226;2024-03-22T15:46:18;28.10;;;19.40;;
43690;SDS011;29293;52.190;21.226;2024-03-22T16:01:33;28.00;;;19.80;;
43690;SDS011;29293;52.190;21.226;2024-03-22T16:16:49;30.60;;;21.10;;
43690;SDS011;29293;52.190;21.226;2024-03-22T16:32:06;34.10;;;23.50;;
43690;SDS011;29293;52.190;21.226;2024-03-22T16:47:16;33.40;;;21.70;;
43690;SDS011;29293;52.190;21.226;2024-03-22T17:02:26;36.30;;;22.50;;
43690;SDS011;29293;52.190;21.226;2024-03-22T17:17:36;33.00;;;22.30;;
43690;SDS011;29293;52.190;21.226;2024-03-22T17:32:54;32.60;;;23.10;;
43690;SDS011;29293;52.190;21.226;2024-03-22T17:48:11;36.60;;;24.00;;
43690;SDS011;29293;52.190;21.226;2024-03-22T18:03:21;38.80;;;24.80;;
43690;SDS011;29293;52.190;21.226;2024-03-22T18:18:31;37.50;;;25.00;;
43690;SDS011;29293;52.190;21.226;2024-03-22T18:33:38;37.30;;;22.10;;
43690;SDS011;29293;52.190;21.226;2024-03-22T18:48:48;38.20;;;23.50;;
43690;SDS011;29293;52.190;21.226;2024-03-22T19:04:00;33.70;;;21.70;;
43690;SDS011;29293;52.190;21.226;2024-03-22T19:19:08;28.40;;;18.60;;
43690;SDS011;29293;52.190;21.226;2024-03-22T19:34:16;29.20;;;18.10;;
43690;SDS011;29293;52.190;21.226;2024-03-22T19:49:24;26.80;;;16.40;;
43690;SDS011;29293;52.190;21.226;2024-03-22T20:04:32;26.80;;;16.20;;
43690;SDS011;29293;52.190;21.226;2024-03-22T20:19:39;28.80;;;16.40;;
43690;SDS011;29293;52.190;21.226;2024-03-22T20:34:46;27.70;;;16.40;;
